createdAt,value
2022-08-08T00:01:06.483Z,11.82
2022-08-08T00:03:55.189Z,11.52
2022-08-08T00:06:44.712Z,10.82
2022-08-08T00:09:33.040Z,12.68
2022-08-08T00:12:09.678Z,12.88
2022-08-08T00:14:48.104Z,11.57
2022-08-08T00:18:02.163Z,12.43
2022-08-08T00:20:29.682Z,12.68
2022-08-08T00:23:02.775Z,12.15
2022-08-08T00:25:46.689Z,13.07
2022-08-08T00:28:35.547Z,12.32
2022-08-08T00:32:21.137Z,11.82
2022-08-08T00:34:50.871Z,11.95
2022-08-08T00:37:47.190Z,13.93
2022-08-08T00:41:10.083Z,12.30
2022-08-08T00:43:40.307Z,12.75
2022-08-08T00:46:17.322Z,13.77
2022-08-08T00:49:05.481Z,14.18
2022-08-08T00:52:24.599Z,13.27
2022-08-08T00:55:52.580Z,12.77
2022-08-08T00:58:30.823Z,12.65
2022-08-08T01:01:10.736Z,12.18
2022-08-08T01:03:59.949Z,12.57
2022-08-08T01:06:49.450Z,13.27
2022-08-08T01:09:48.760Z,13.38
2022-08-08T01:12:54.471Z,13.68
2022-08-08T01:16:16.790Z,13.48
2022-08-08T01:19:02.621Z,12.73
2022-08-08T01:22:15.669Z,13.35
2022-08-08T01:25:16.922Z,11.85
2022-08-08T01:28:31.872Z,12.00
2022-08-08T01:32:06.446Z,12.40
2022-08-08T01:35:15.471Z,12.60
2022-08-08T01:38:01.326Z,13.23
2022-08-08T01:40:54.209Z,13.85
2022-08-08T01:43:39.740Z,15.45
2022-08-08T01:46:12.361Z,13.88
2022-08-08T01:48:57.323Z,14.20
2022-08-08T01:51:31.766Z,14.20
2022-08-08T01:55:16.960Z,14.88
2022-08-08T01:58:11.369Z,15.23
2022-08-08T02:01:08.910Z,14.00
2022-08-08T02:04:03.678Z,13.80
2022-08-08T02:06:45.872Z,14.50
2022-08-08T02:10:03.252Z,14.38
2022-08-08T02:12:42.927Z,16.20
2022-08-08T02:15:39.111Z,14.52
2022-08-08T02:18:19.099Z,14.40
2022-08-08T02:21:21.281Z,15.73
2022-08-08T02:23:55.740Z,14.18
2022-08-08T02:26:33.435Z,14.70
2022-08-08T02:29:15.009Z,13.90
2022-08-08T02:32:30.532Z,13.82
2022-08-08T02:35:08.354Z,14.65
2022-08-08T02:38:15.709Z,14.40
2022-08-08T02:41:17.844Z,15.20
2022-08-08T02:44:35.127Z,13.75
2022-08-08T02:47:27.124Z,14.55
2022-08-08T02:50:17.991Z,15.30
2022-08-08T02:52:51.724Z,14.48
2022-08-08T02:56:03.467Z,15.15
2022-08-08T02:59:17.444Z,16.13
2022-08-08T03:02:20.044Z,14.38
2022-08-08T03:05:11.838Z,16.00
2022-08-08T03:08:18.769Z,14.77
2022-08-08T03:12:01.912Z,14.93
2022-08-08T03:16:00.418Z,13.25
2022-08-08T03:18:13.588Z,11.65
2022-08-08T03:20:51.423Z,11.88
2022-08-08T03:23:23.833Z,11.20
2022-08-08T03:25:58.262Z,12.40
2022-08-08T03:28:44.642Z,13.85
2022-08-08T03:32:05.193Z,13.23
2022-08-08T03:34:18.076Z,13.10
2022-08-08T03:36:46.385Z,12.63
2022-08-08T03:39:15.998Z,13.30
2022-08-08T03:42:28.407Z,13.10
2022-08-08T03:44:33.431Z,14.02
2022-08-08T03:47:00.192Z,11.52
2022-08-08T03:49:57.676Z,11.15
2022-08-08T03:52:27.331Z,11.73
2022-08-08T03:55:10.907Z,13.73
2022-08-08T03:58:35.218Z,10.45
2022-08-08T04:00:57.755Z,10.73
2022-08-08T04:03:57.505Z,9.30
2022-08-08T04:06:22.612Z,9.43
2022-08-08T04:08:49.763Z,10.02
2022-08-08T04:11:23.280Z,9.25
2022-08-08T04:14:04.271Z,17.52
2022-08-08T04:16:38.894Z,9.52
2022-08-08T04:19:23.141Z,12.45
2022-08-08T04:21:51.252Z,9.65
2022-08-08T04:24:23.293Z,17.98
2022-08-08T04:26:58.230Z,11.40
2022-08-08T04:29:26.082Z,11.18
2022-08-08T04:31:58.829Z,8.30
2022-08-08T04:34:29.086Z,7.45
2022-08-08T04:36:59.215Z,12.48
2022-08-08T04:40:03.506Z,7.53
2022-08-08T04:42:15.964Z,7.43
2022-08-08T04:44:47.712Z,8.13
2022-08-08T04:47:15.182Z,10.50
2022-08-08T04:50:00.885Z,7.30
2022-08-08T04:52:34.303Z,5.85
2022-08-08T04:55:04.346Z,7.40
2022-08-08T04:57:34.446Z,13.15
2022-08-08T05:00:02.253Z,7.00
2022-08-08T05:02:31.137Z,7.32
2022-08-08T05:04:59.239Z,7.10
2022-08-08T05:07:38.260Z,7.82
2022-08-08T05:10:12.826Z,7.28
2022-08-08T05:12:53.459Z,10.90
2022-08-08T05:15:31.464Z,6.95
2022-08-08T05:18:14.403Z,7.97
2022-08-08T05:20:49.845Z,7.75
2022-08-08T05:23:17.972Z,7.65
2022-08-08T05:25:44.613Z,7.10
2022-08-08T05:28:14.919Z,10.57
2022-08-08T05:30:47.285Z,16.30
2022-08-08T05:33:14.452Z,7.40
2022-08-08T05:35:45.481Z,6.97
2022-08-08T05:38:31.682Z,11.60
2022-08-08T05:41:00.096Z,9.38
2022-08-08T05:43:39.340Z,7.95
2022-08-08T05:46:10.340Z,7.10
2022-08-08T05:48:37.989Z,6.32
2022-08-08T05:51:14.637Z,6.55
2022-08-08T05:54:26.049Z,11.00
2022-08-08T05:56:31.012Z,6.75
2022-08-08T05:59:05.254Z,6.47
2022-08-08T06:01:51.230Z,8.30
2022-08-08T06:04:29.094Z,6.82
2022-08-08T06:07:01.650Z,5.60
2022-08-08T06:09:58.556Z,10.30
2022-08-08T06:12:30.098Z,6.53
2022-08-08T06:15:02.785Z,7.18
2022-08-08T06:17:51.500Z,6.35
2022-08-08T06:20:20.981Z,6.55
2022-08-08T06:22:50.080Z,5.68
2022-08-08T06:25:18.258Z,7.30
2022-08-08T06:27:49.055Z,4.88
2022-08-08T06:30:20.327Z,4.13
2022-08-08T06:32:56.560Z,8.60
2022-08-08T06:36:04.920Z,5.10
2022-08-08T06:38:16.532Z,4.55
2022-08-08T06:40:48.748Z,5.10
2022-08-08T06:43:30.792Z,3.70
2022-08-08T06:46:02.319Z,7.13
2022-08-08T06:48:30.560Z,4.40
2022-08-08T06:50:58.444Z,5.75
2022-08-08T06:53:39.719Z,5.03
2022-08-08T06:56:09.199Z,4.85
2022-08-08T06:58:37.036Z,5.05
2022-08-08T07:02:17.191Z,5.50
2022-08-08T07:04:39.125Z,4.65
2022-08-08T07:06:59.507Z,7.25
2022-08-08T07:09:41.734Z,5.47
2022-08-08T07:12:18.001Z,5.03
2022-08-08T07:15:23.128Z,4.20
2022-08-08T07:18:35.919Z,4.20
2022-08-08T07:21:02.224Z,4.75
2022-08-08T07:24:04.732Z,7.40
2022-08-08T07:26:38.014Z,4.35
2022-08-08T07:29:08.116Z,5.32
2022-08-08T07:31:48.369Z,5.20
2022-08-08T07:34:20.325Z,6.75
2022-08-08T07:36:55.785Z,7.20
2022-08-08T07:39:29.689Z,4.90
2022-08-08T07:42:04.812Z,4.75
2022-08-08T07:44:37.357Z,9.48
2022-08-08T07:47:08.319Z,4.38
2022-08-08T07:49:35.092Z,6.50
2022-08-08T07:52:13.070Z,4.85
2022-08-08T07:54:48.951Z,5.82
2022-08-08T07:57:36.446Z,5.43
2022-08-08T08:00:13.404Z,4.35
2022-08-08T08:02:47.310Z,3.92
2022-08-08T08:05:33.595Z,3.45
2022-08-08T08:08:27.795Z,3.55
2022-08-08T08:10:58.224Z,3.72
2022-08-08T08:13:42.494Z,3.63
2022-08-08T08:16:32.417Z,4.38
2022-08-08T08:19:05.699Z,2.35
2022-08-08T08:22:00.802Z,2.97
2022-08-08T08:24:32.074Z,3.47
2022-08-08T08:27:03.670Z,2.33
2022-08-08T08:29:31.067Z,1.77
2022-08-08T08:31:59.202Z,3.05
2022-08-08T08:34:32.578Z,1.90
2022-08-08T08:37:08.121Z,1.73
2022-08-08T08:39:59.934Z,1.85
2022-08-08T08:42:31.964Z,5.90
2022-08-08T08:45:22.072Z,2.58
2022-08-08T08:47:54.929Z,2.03
2022-08-08T08:50:33.050Z,0.90
2022-08-08T08:53:28.285Z,1.05
2022-08-08T08:56:02.060Z,2.10
2022-08-08T08:58:42.897Z,1.45
2022-08-08T09:01:13.482Z,0.90
2022-08-08T09:03:50.648Z,2.78
2022-08-08T09:06:26.569Z,2.38
2022-08-08T09:09:25.839Z,1.15
2022-08-08T09:12:01.677Z,1.63
2022-08-08T09:14:33.945Z,1.00
2022-08-08T09:17:07.094Z,4.93
2022-08-08T09:22:00.134Z,0.93
2022-08-08T09:22:27.183Z,6.28
2022-08-08T09:24:56.924Z,0.88
2022-08-08T09:27:55.830Z,1.48
2022-08-08T09:30:17.772Z,1.27
2022-08-08T09:33:12.592Z,0.63
2022-08-08T09:35:49.231Z,4.85
2022-08-08T09:38:32.815Z,1.63
2022-08-08T09:41:06.438Z,0.50
2022-08-08T09:44:06.470Z,2.25
2022-08-08T09:46:34.780Z,0.70
2022-08-08T09:49:18.650Z,0.73
2022-08-08T09:52:06.334Z,4.15
2022-08-08T09:54:41.761Z,3.47
2022-08-08T09:57:16.474Z,1.50
2022-08-08T10:00:01.728Z,1.48
2022-08-08T10:02:38.625Z,1.17
2022-08-08T10:05:15.013Z,1.52
2022-08-08T10:07:50.983Z,0.57
2022-08-08T10:10:38.525Z,2.30
2022-08-08T10:13:26.066Z,0.60
2022-08-08T10:16:02.021Z,0.82
2022-08-08T10:18:36.248Z,1.15
2022-08-08T10:21:08.525Z,1.38
2022-08-08T10:23:58.570Z,0.50
2022-08-08T10:26:56.669Z,0.60
2022-08-08T10:29:58.963Z,1.25
2022-08-08T10:32:35.199Z,3.38
2022-08-08T10:35:10.604Z,2.53
2022-08-08T10:37:42.055Z,0.73
2022-08-08T10:40:16.828Z,0.73
2022-08-08T10:42:47.319Z,1.75
2022-08-08T10:45:16.024Z,3.83
2022-08-08T10:47:48.520Z,2.03
2022-08-08T10:50:20.443Z,0.82
2022-08-08T10:52:50.819Z,4.85
2022-08-08T10:55:40.561Z,1.85
2022-08-08T10:58:09.714Z,0.45
2022-08-08T11:00:52.486Z,0.98
2022-08-08T11:03:52.445Z,2.75
2022-08-08T11:06:16.572Z,1.60
2022-08-08T11:08:53.558Z,2.67
2022-08-08T11:11:32.067Z,1.55
2022-08-08T11:14:12.348Z,0.98
2022-08-08T11:16:46.533Z,3.33
2022-08-08T11:19:15.589Z,0.95
2022-08-08T11:21:55.642Z,1.38
2022-08-08T11:24:26.582Z,0.57
2022-08-08T11:26:58.060Z,2.70
2022-08-08T11:29:41.868Z,0.60
2022-08-08T11:32:14.985Z,1.63
2022-08-08T11:35:09.602Z,0.50
2022-08-08T11:38:34.362Z,1.30
2022-08-08T11:40:22.515Z,0.80
2022-08-08T11:42:54.945Z,1.05
2022-08-08T11:45:23.154Z,3.03
2022-08-08T11:48:04.387Z,1.40
2022-08-08T11:50:33.924Z,1.85
2022-08-08T11:53:05.854Z,0.50
2022-08-08T11:55:36.156Z,1.85
2022-08-08T11:58:15.070Z,0.85
2022-08-08T12:00:48.068Z,0.50
2022-08-08T12:03:23.609Z,1.05
2022-08-08T12:05:53.308Z,3.80
2022-08-08T12:08:31.970Z,2.17
2022-08-08T12:11:01.785Z,0.77
2022-08-08T12:13:33.555Z,1.23
2022-08-08T12:16:19.481Z,1.55
2022-08-08T12:18:53.736Z,1.75
2022-08-08T12:21:59.151Z,0.65
2022-08-08T12:24:27.733Z,1.02
2022-08-08T12:26:56.941Z,1.45
2022-08-08T12:29:42.035Z,1.05
2022-08-08T12:32:20.291Z,0.40
2022-08-08T12:35:04.777Z,2.28
2022-08-08T12:37:43.136Z,2.28
2022-08-08T12:40:22.624Z,4.40
2022-08-08T12:42:52.226Z,2.20
2022-08-08T12:45:53.977Z,1.38
2022-08-08T12:48:35.513Z,1.95
2022-08-08T12:51:02.813Z,0.50
2022-08-08T12:53:37.727Z,3.72
2022-08-08T12:56:19.812Z,0.52
2022-08-08T12:58:52.206Z,1.20
2022-08-08T13:01:24.627Z,0.85
2022-08-08T13:04:18.515Z,2.65
2022-08-08T13:07:05.033Z,1.50
2022-08-08T13:10:05.556Z,2.47
2022-08-08T13:12:39.471Z,5.15
2022-08-08T13:15:10.980Z,2.08
2022-08-08T13:17:54.131Z,0.40
2022-08-08T13:20:27.416Z,2.00
2022-08-08T13:23:26.997Z,1.58
2022-08-08T13:25:43.690Z,1.42
2022-08-08T13:28:17.470Z,1.30
2022-08-08T13:30:45.382Z,1.80
2022-08-08T13:33:18.372Z,3.47
2022-08-08T13:35:50.710Z,0.90
2022-08-08T13:38:18.635Z,2.53
2022-08-08T13:40:46.041Z,1.75
2022-08-08T13:43:16.627Z,1.30
2022-08-08T13:45:47.654Z,0.95
2022-08-08T13:48:17.472Z,1.52
2022-08-08T13:50:56.849Z,0.50
2022-08-08T13:53:34.211Z,1.02
2022-08-08T13:56:11.026Z,1.58
2022-08-08T13:58:57.870Z,1.25
2022-08-08T14:01:42.091Z,7.72
2022-08-08T14:04:23.367Z,2.30
2022-08-08T14:06:58.890Z,2.28
2022-08-08T14:10:05.520Z,1.08
2022-08-08T14:12:30.213Z,1.05
2022-08-08T14:14:57.424Z,3.50
2022-08-08T14:17:57.631Z,1.17
2022-08-08T14:20:15.580Z,2.67
2022-08-08T14:23:21.055Z,1.65
2022-08-08T14:26:04.025Z,2.25
2022-08-08T14:28:40.018Z,0.98
2022-08-08T14:31:09.401Z,4.88
2022-08-08T14:33:36.757Z,0.55
2022-08-08T14:36:06.407Z,0.60
2022-08-08T14:38:52.455Z,0.70
2022-08-08T14:41:45.510Z,2.08
2022-08-08T14:44:17.004Z,1.35
2022-08-08T14:46:58.163Z,0.65
2022-08-08T14:49:37.810Z,1.90
2022-08-08T14:52:21.558Z,0.70
2022-08-08T14:54:49.944Z,0.73
2022-08-08T14:57:17.078Z,0.68
2022-08-08T14:59:50.984Z,2.05
2022-08-08T15:02:25.708Z,1.20
2022-08-08T15:04:57.571Z,1.50
2022-08-08T15:07:40.225Z,0.40
2022-08-08T15:10:09.351Z,2.05
2022-08-08T15:12:37.082Z,1.60
2022-08-08T15:15:06.704Z,0.70
2022-08-08T15:17:37.032Z,0.50
2022-08-08T15:20:06.726Z,1.38
2022-08-08T15:22:38.091Z,0.90
2022-08-08T15:25:08.523Z,0.82
2022-08-08T15:28:03.906Z,1.05
2022-08-08T15:30:31.995Z,1.42
2022-08-08T15:32:59.380Z,3.45
2022-08-08T15:35:27.382Z,0.88
2022-08-08T15:37:56.748Z,2.08
2022-08-08T15:40:23.426Z,0.60
2022-08-08T15:42:55.791Z,0.52
2022-08-08T15:45:23.089Z,0.50
2022-08-08T15:48:05.313Z,1.95
2022-08-08T15:51:03.077Z,2.20
2022-08-08T15:53:48.924Z,2.92
2022-08-08T15:56:20.037Z,0.77
2022-08-08T15:58:48.635Z,2.55
2022-08-08T16:01:15.858Z,0.90
2022-08-08T16:03:42.520Z,1.27
2022-08-08T16:06:14.372Z,0.93
2022-08-08T16:12:59.957Z,1.27
2022-08-08T16:13:08.806Z,1.58
2022-08-08T16:14:15.970Z,3.25
2022-08-08T16:16:43.447Z,2.67
2022-08-08T16:19:23.404Z,0.95
2022-08-08T16:21:54.074Z,0.63
2022-08-08T16:24:25.165Z,0.77
2022-08-08T16:26:52.602Z,0.60
2022-08-08T16:29:23.830Z,1.42
2022-08-08T16:32:11.167Z,0.50
2022-08-08T16:34:40.656Z,0.50
2022-08-08T16:37:07.418Z,1.50
2022-08-08T16:40:02.347Z,0.52
2022-08-08T16:42:20.757Z,0.52
2022-08-08T16:44:55.226Z,4.40
2022-08-08T16:47:40.229Z,0.50
2022-08-08T16:50:14.126Z,1.20
2022-08-08T16:55:03.618Z,1.17
2022-08-08T16:55:54.062Z,2.35
2022-08-08T16:58:20.667Z,0.95
2022-08-08T17:00:49.013Z,1.35
2022-08-08T17:03:25.365Z,1.52
2022-08-08T17:06:05.887Z,3.80
2022-08-08T17:08:52.558Z,0.70
2022-08-08T17:11:19.837Z,2.40
2022-08-08T17:13:50.184Z,1.50
2022-08-08T17:16:28.587Z,1.40
2022-08-08T17:18:55.634Z,0.50
2022-08-08T17:21:22.295Z,6.32
2022-08-08T17:23:58.280Z,1.67
2022-08-08T17:26:29.681Z,2.50
2022-08-08T17:28:57.322Z,1.40
2022-08-08T17:31:45.046Z,2.35
2022-08-08T17:34:52.669Z,2.53
2022-08-08T17:37:03.314Z,1.83
2022-08-08T17:40:04.230Z,2.67
2022-08-08T17:42:19.423Z,2.55
2022-08-08T17:44:49.199Z,2.85
2022-08-08T17:47:37.749Z,2.67
2022-08-08T17:50:05.466Z,2.05
2022-08-08T17:52:34.360Z,0.95
2022-08-08T17:55:05.790Z,2.30
2022-08-08T17:57:49.652Z,2.97
2022-08-08T18:00:21.521Z,2.67
2022-08-08T18:03:07.551Z,2.92
2022-08-08T18:05:49.733Z,3.83
2022-08-08T18:08:38.229Z,2.47
2022-08-08T18:11:09.118Z,1.58
2022-08-08T18:13:42.053Z,0.90
2022-08-08T18:16:09.809Z,3.13
2022-08-08T18:18:42.464Z,4.63
2022-08-08T18:21:25.219Z,1.17
2022-08-08T18:23:58.979Z,2.70
2022-08-08T18:26:28.967Z,1.67
2022-08-08T18:28:56.258Z,0.93
2022-08-08T18:31:25.181Z,0.60
2022-08-08T18:34:11.631Z,2.15
2022-08-08T18:36:41.319Z,0.80
2022-08-08T18:39:16.314Z,0.70
2022-08-08T18:41:51.231Z,1.45
2022-08-08T18:44:27.489Z,3.38
2022-08-08T18:46:57.959Z,0.73
2022-08-08T18:49:57.591Z,1.92
2022-08-08T18:52:26.358Z,3.10
2022-08-08T18:55:00.558Z,1.02
2022-08-08T18:57:41.158Z,5.22
2022-08-08T19:00:15.759Z,4.25
2022-08-08T19:02:48.347Z,3.90
2022-08-08T19:05:23.704Z,2.67
2022-08-08T19:07:57.654Z,4.22
2022-08-08T19:10:24.984Z,1.85
2022-08-08T19:12:53.438Z,1.38
2022-08-08T19:15:21.690Z,4.53
2022-08-08T19:18:33.679Z,4.25
2022-08-08T19:20:39.389Z,6.05
2022-08-08T19:23:08.572Z,1.25
2022-08-08T19:26:01.640Z,1.98
2022-08-08T19:28:24.302Z,4.22
2022-08-08T19:31:04.089Z,3.13
2022-08-08T19:33:52.022Z,0.82
2022-08-08T19:36:27.354Z,2.78
2022-08-08T19:38:55.542Z,5.57
2022-08-08T19:41:25.420Z,4.00
2022-08-08T19:44:02.453Z,2.67
2022-08-08T19:46:33.681Z,3.42
2022-08-08T19:49:01.574Z,4.20
2022-08-08T19:51:34.612Z,1.60
2022-08-08T19:54:08.350Z,4.25
2022-08-08T19:56:39.749Z,4.68
2022-08-08T19:59:12.312Z,2.72
2022-08-08T20:02:01.693Z,4.18
2022-08-08T20:04:27.600Z,4.78
2022-08-08T20:06:56.825Z,5.32
2022-08-08T20:09:24.953Z,4.82
2022-08-08T20:11:52.203Z,2.47
2022-08-08T20:14:35.560Z,4.60
2022-08-08T20:17:04.390Z,4.65
2022-08-08T20:19:34.773Z,5.25
2022-08-08T20:22:13.451Z,9.35
2022-08-08T20:24:53.805Z,4.95
2022-08-08T20:27:23.370Z,9.80
2022-08-08T20:30:00.541Z,5.45
2022-08-08T20:32:29.985Z,6.72
2022-08-08T20:35:01.245Z,9.30
2022-08-08T20:37:37.341Z,6.22
2022-08-08T20:40:17.494Z,5.22
2022-08-08T20:43:00.088Z,9.25
2022-08-08T20:45:55.297Z,11.23
2022-08-08T20:48:13.823Z,4.03
2022-08-08T20:50:47.945Z,6.20
2022-08-08T20:53:16.563Z,4.57
2022-08-08T20:56:01.479Z,3.65
2022-08-08T20:58:28.451Z,7.45
2022-08-08T21:00:57.344Z,4.68
2022-08-08T21:03:24.064Z,9.35
2022-08-08T21:05:59.152Z,8.13
2022-08-08T21:08:36.653Z,6.80
2022-08-08T21:11:13.067Z,6.97
2022-08-08T21:13:41.923Z,4.90
2022-08-08T21:16:20.657Z,10.25
2022-08-08T21:18:58.407Z,8.25
2022-08-08T21:21:41.048Z,6.88
2022-08-08T21:24:19.276Z,3.47
2022-08-08T21:26:54.014Z,4.30
2022-08-08T21:29:21.537Z,4.30
2022-08-08T21:31:58.489Z,7.28
2022-08-08T21:34:29.908Z,8.75
2022-08-08T21:36:58.482Z,5.43
2022-08-08T21:39:41.492Z,10.25
2022-08-08T21:42:12.245Z,7.43
2022-08-08T21:44:38.914Z,7.82
2022-08-08T21:48:12.845Z,8.48
2022-08-08T21:50:12.445Z,12.02
2022-08-08T21:54:33.836Z,2.65
2022-08-08T21:56:20.160Z,4.35
2022-08-08T21:58:13.895Z,2.25
2022-08-08T22:00:41.114Z,2.10
2022-08-08T22:03:08.134Z,3.97
2022-08-08T22:05:41.531Z,3.33
2022-08-08T22:08:08.590Z,2.47
2022-08-08T22:10:35.671Z,3.30
2022-08-08T22:13:17.334Z,2.72
2022-08-08T22:15:58.482Z,2.22
2022-08-08T22:18:27.719Z,4.53
2022-08-08T22:20:57.546Z,3.20
2022-08-08T22:23:29.775Z,3.42
2022-08-08T22:26:28.043Z,4.45
2022-08-08T22:29:04.626Z,6.80
2022-08-08T22:31:35.334Z,9.88
2022-08-08T22:34:13.040Z,4.43
2022-08-08T22:36:42.722Z,6.75
2022-08-08T22:39:18.832Z,4.25
2022-08-08T22:41:46.618Z,3.92
2022-08-08T22:44:16.060Z,3.97
2022-08-08T22:46:42.888Z,5.03
2022-08-08T22:49:19.882Z,4.82
2022-08-08T22:51:46.977Z,6.22
2022-08-08T22:54:32.833Z,3.28
2022-08-08T22:57:11.436Z,3.60
2022-08-08T22:59:48.423Z,3.03
2022-08-08T23:02:28.628Z,4.15
2022-08-08T23:05:04.847Z,3.13
2022-08-08T23:07:57.020Z,2.28
2022-08-08T23:10:21.621Z,3.40
2022-08-08T23:12:52.399Z,2.97
2022-08-08T23:16:41.960Z,3.13
2022-08-08T23:18:12.139Z,2.85
2022-08-08T23:20:40.075Z,1.83
2022-08-08T23:23:07.332Z,5.22
2022-08-08T23:25:42.715Z,3.88
2022-08-08T23:28:15.377Z,1.90
2022-08-08T23:30:44.654Z,1.70
2022-08-08T23:33:19.071Z,5.53
2022-08-08T23:36:07.384Z,3.08
2022-08-08T23:38:34.945Z,2.05
2022-08-08T23:41:02.419Z,3.42
2022-08-08T23:43:45.649Z,2.28
2022-08-08T23:49:02.239Z,4.85
2022-08-08T23:49:15.163Z,2.38
2022-08-08T23:52:04.338Z,2.35
2022-08-08T23:54:41.667Z,4.03
2022-08-08T23:57:27.174Z,5.47
